Time;durP1;ratioP1;P1;durP2;ratioP2;P2;SDS_P1;SDS_P2;PMS_P1;PMS_P2;Temp;Humidity;BMP_temperature;BMP_pressure;BME280_temperature;BME280_humidity;BME280_pressure;Samples;Min_cycle;Max_cycle;Signal;HPM_P1;HPM_P2
2021/03/23 00:00:27;;;;;;;37.58;19.73;;;;;;;;;;4994940;28;20030;-65
2021/03/23 00:02:54;;;;;;;38.25;20.00;;;;;;;;;;4995036;28;20050;-65
2021/03/23 00:05:19;;;;;;;33.13;19.10;;;;;;;;;;4994801;28;20172;-65
2021/03/23 00:07:44;;;;;;;38.20;19.50;;;;;;;;;;4994993;28;20514;-65
2021/03/23 00:10:11;;;;;;;42.25;19.98;;;;;;;;;;4994671;28;20024;-65
2021/03/23 00:12:36;;;;;;;37.05;19.00;;;;;;;;;;4994759;28;20041;-64
2021/03/23 00:15:02;;;;;;;33.70;18.10;;;;;;;;;;4994609;28;20097;-64
2021/03/23 00:17:28;;;;;;;31.33;18.60;;;;;;;;;;4994533;28;20069;-65
2021/03/23 00:19:53;;;;;;;30.65;17.38;;;;;;;;;;4991744;28;20079;-65
2021/03/23 00:22:18;;;;;;;35.15;17.73;;;;;;;;;;4991689;28;20037;-65
2021/03/23 00:24:44;;;;;;;33.30;17.77;;;;;;;;;;4985327;28;20019;-65
2021/03/23 00:27:09;;;;;;;30.67;15.80;;;;;;;;;;4985319;28;20034;-65
2021/03/23 00:29:34;;;;;;;38.10;17.80;;;;;;;;;;4974138;28;20034;-65
2021/03/23 00:31:59;;;;;;;34.60;17.92;;;;;;;;;;4975167;28;20041;-64
2021/03/23 00:34:25;;;;;;;32.13;15.63;;;;;;;;;;4973958;28;20427;-65
2021/03/23 00:36:50;;;;;;;32.65;15.65;;;;;;;;;;4974761;28;20042;-65
2021/03/23 00:39:15;;;;;;;36.22;16.40;;;;;;;;;;4974552;28;20189;-65
2021/03/23 00:41:41;;;;;;;29.30;16.35;;;;;;;;;;4974893;28;20094;-64
2021/03/23 00:44:09;;;;;;;32.40;16.15;;;;;;;;;;4974202;28;20411;-65
2021/03/23 00:46:34;;;;;;;34.53;16.58;;;;;;;;;;4974580;28;20027;-64
2021/03/23 00:49:00;;;;;;;29.35;16.38;;;;;;;;;;4974676;28;20043;-65
2021/03/23 00:51:25;;;;;;;35.97;18.08;;;;;;;;;;4974702;28;20062;-65
2021/03/23 00:53:50;;;;;;;34.30;16.23;;;;;;;;;;4974604;28;20072;-65
2021/03/23 00:56:15;;;;;;;32.50;17.55;;;;;;;;;;4974678;28;20039;-65
2021/03/23 00:58:41;;;;;;;37.67;20.52;;;;;;;;;;4974499;28;20034;-65
2021/03/23 01:01:06;;;;;;;36.90;18.52;;;;;;;;;;4974678;28;20011;-65
2021/03/23 01:03:31;;;;;;;36.42;19.35;;;;;;;;;;4974464;28;20035;-64
2021/03/23 01:05:57;;;;;;;39.60;20.63;;;;;;;;;;4974511;28;20037;-64
2021/03/23 01:08:22;;;;;;;38.53;20.98;;;;;;;;;;4974032;28;20010;-65
2021/03/23 01:10:47;;;;;;;44.60;23.67;;;;;;;;;;4984237;28;20038;-64
2021/03/23 01:13:13;;;;;;;41.97;20.15;;;;;;;;;;4993589;28;20034;-64
2021/03/23 01:15:38;;;;;;;42.00;20.95;;;;;;;;;;4993626;28;20113;-65
2021/03/23 01:18:03;;;;;;;37.53;18.20;;;;;;;;;;4993598;28;20034;-64
2021/03/23 01:20:29;;;;;;;43.33;20.38;;;;;;;;;;4993639;28;20034;-65
2021/03/23 01:22:55;;;;;;;39.13;18.58;;;;;;;;;;4993768;28;20022;-65
2021/03/23 01:25:21;;;;;;;33.38;18.25;;;;;;;;;;4993245;28;20539;-65
2021/03/23 01:27:49;;;;;;;32.80;17.88;;;;;;;;;;4993465;28;20034;-64
2021/03/23 01:30:16;;;;;;;37.45;19.02;;;;;;;;;;4993596;28;20014;-65
2021/03/23 01:32:41;;;;;;;38.28;19.00;;;;;;;;;;4993202;28;20487;-65
2021/03/23 01:35:06;;;;;;;32.42;19.52;;;;;;;;;;4993516;28;20041;-65
2021/03/23 01:37:32;;;;;;;37.53;19.25;;;;;;;;;;4992247;28;20029;-65
2021/03/23 01:39:57;;;;;;;38.95;20.20;;;;;;;;;;4993336;28;20050;-64
2021/03/23 01:42:22;;;;;;;43.22;20.02;;;;;;;;;;4993513;28;20038;-65
2021/03/23 01:45:07;;;;;;;44.13;20.48;;;;;;;;;;4993358;28;20418;-65
2021/03/23 01:47:33;;;;;;;42.83;19.25;;;;;;;;;;4993034;28;20061;-64
2021/03/23 01:49:58;;;;;;;33.22;19.83;;;;;;;;;;4993395;28;20073;-64
2021/03/23 01:52:27;;;;;;;48.35;20.60;;;;;;;;;;4992683;28;20037;-64
2021/03/23 01:54:59;;;;;;;37.85;19.55;;;;;;;;;;4993327;28;20031;-65
2021/03/23 01:57:24;;;;;;;36.25;19.88;;;;;;;;;;4993063;28;20427;-65
2021/03/23 01:59:54;;;;;;;39.67;20.83;;;;;;;;;;4993265;28;20046;-65
2021/03/23 02:02:24;;;;;;;38.60;21.23;;;;;;;;;;4993405;28;20034;-65
2021/03/23 02:04:49;;;;;;;47.88;23.77;;;;;;;;;;4988042;28;20368;-65
2021/03/23 02:07:14;;;;;;;43.45;23.05;;;;;;;;;;4973914;28;20133;-64
2021/03/23 02:09:40;;;;;;;39.58;22.25;;;;;;;;;;4981887;28;20498;-65
2021/03/23 02:12:07;;;;;;;45.28;24.17;;;;;;;;;;4993378;28;20011;-64
2021/03/23 02:14:34;;;;;;;45.50;23.20;;;;;;;;;;4996349;28;20030;-65
2021/03/23 02:17:14;;;;;;;42.78;25.05;;;;;;;;;;4996161;28;20490;-65
2021/03/23 02:19:40;;;;;;;48.25;24.10;;;;;;;;;;4996631;28;20041;-65
2021/03/23 02:22:08;;;;;;;48.35;25.35;;;;;;;;;;4996680;28;20034;-64
2021/03/23 02:24:33;;;;;;;40.25;24.08;;;;;;;;;;4996582;28;20029;-65
2021/03/23 02:26:58;;;;;;;44.53;21.52;;;;;;;;;;4996840;28;20014;-65
2021/03/23 02:29:23;;;;;;;43.10;22.23;;;;;;;;;;4996628;28;20364;-65
2021/03/23 02:31:52;;;;;;;39.20;22.33;;;;;;;;;;4996868;28;20018;-64
2021/03/23 02:34:21;;;;;;;41.35;23.70;;;;;;;;;;4996750;28;20093;-64
2021/03/23 02:36:48;;;;;;;39.17;22.95;;;;;;;;;;4996688;28;20030;-64
2021/03/23 02:39:15;;;;;;;43.80;22.05;;;;;;;;;;4996049;28;20550;-65
2021/03/23 02:41:41;;;;;;;44.47;22.63;;;;;;;;;;4996387;28;20491;-64
2021/03/23 02:44:06;;;;;;;41.78;22.17;;;;;;;;;;4996126;28;20048;-64
2021/03/23 02:46:32;;;;;;;43.08;22.75;;;;;;;;;;4996744;28;20030;-64
2021/03/23 02:48:58;;;;;;;39.78;22.30;;;;;;;;;;4996403;28;20422;-65
2021/03/23 02:51:23;;;;;;;38.03;22.08;;;;;;;;;;4996310;28;20027;-65
2021/03/23 02:53:48;;;;;;;46.15;21.90;;;;;;;;;;4996360;28;20455;-65
2021/03/23 02:56:14;;;;;;;37.85;22.58;;;;;;;;;;4996266;28;20023;-65
2021/03/23 02:58:39;;;;;;;42.40;22.67;;;;;;;;;;4995940;28;20093;-65
2021/03/23 03:01:05;;;;;;;51.92;21.75;;;;;;;;;;4995864;28;20371;-65
2021/03/23 03:03:31;;;;;;;42.03;22.23;;;;;;;;;;4996091;28;20407;-65
2021/03/23 03:05:56;;;;;;;47.00;24.10;;;;;;;;;;4996096;28;20104;-65
2021/03/23 03:08:22;;;;;;;39.00;23.15;;;;;;;;;;4996078;28;20015;-66
2021/03/23 03:10:48;;;;;;;44.60;22.10;;;;;;;;;;4996028;28;20519;-64
2021/03/23 03:13:13;;;;;;;48.05;24.85;;;;;;;;;;4995876;28;20034;-64
2021/03/23 03:15:40;;;;;;;42.40;23.80;;;;;;;;;;4994475;28;20058;-65
2021/03/23 03:18:06;;;;;;;46.55;23.10;;;;;;;;;;4995882;28;20030;-64
2021/03/23 03:20:31;;;;;;;43.67;22.60;;;;;;;;;;4995702;28;20030;-64
2021/03/23 03:22:56;;;;;;;51.20;24.77;;;;;;;;;;4994372;28;20349;-64
2021/03/23 03:25:22;;;;;;;44.55;23.65;;;;;;;;;;4995742;28;20019;-64
2021/03/23 03:27:47;;;;;;;44.17;22.35;;;;;;;;;;4995738;28;20034;-65
2021/03/23 03:30:18;;;;;;;40.92;22.63;;;;;;;;;;4995298;28;20045;-65
2021/03/23 03:32:44;;;;;;;41.75;21.98;;;;;;;;;;4995689;28;20088;-65
2021/03/23 03:35:09;;;;;;;43.65;21.60;;;;;;;;;;4995496;28;20034;-65
2021/03/23 03:37:35;;;;;;;39.65;21.17;;;;;;;;;;4995189;28;20046;-64
2021/03/23 03:40:00;;;;;;;40.88;20.95;;;;;;;;;;4995365;28;20026;-65
2021/03/23 03:42:25;;;;;;;40.85;21.90;;;;;;;;;;4995097;28;20101;-64
2021/03/23 03:44:51;;;;;;;40.92;21.77;;;;;;;;;;4995328;28;20484;-65
2021/03/23 03:47:16;;;;;;;33.92;20.88;;;;;;;;;;4995420;28;20021;-65
2021/03/23 03:49:41;;;;;;;38.50;21.00;;;;;;;;;;4995156;28;20033;-65
2021/03/23 03:52:07;;;;;;;37.40;22.08;;;;;;;;;;4994872;28;20025;-65
2021/03/23 03:54:32;;;;;;;40.22;21.50;;;;;;;;;;4994842;28;20093;-64
2021/03/23 03:56:57;;;;;;;36.40;21.33;;;;;;;;;;4995133;28;20031;-66
2021/03/23 03:59:23;;;;;;;39.17;21.67;;;;;;;;;;4993678;28;20048;-66
2021/03/23 04:01:48;;;;;;;38.22;21.90;;;;;;;;;;4995121;28;20015;-65
2021/03/23 04:04:13;;;;;;;42.78;21.90;;;;;;;;;;4994871;28;20035;-65
2021/03/23 04:06:39;;;;;;;44.97;22.40;;;;;;;;;;4994968;28;20022;-64
2021/03/23 04:09:04;;;;;;;38.30;20.35;;;;;;;;;;4994915;28;20062;-64
2021/03/23 04:11:29;;;;;;;47.83;21.58;;;;;;;;;;4994773;28;20030;-64
2021/03/23 04:13:55;;;;;;;42.35;20.38;;;;;;;;;;4994737;28;20022;-65
2021/03/23 04:16:20;;;;;;;38.25;19.88;;;;;;;;;;4994806;28;20478;-65
2021/03/23 04:18:45;;;;;;;35.03;20.35;;;;;;;;;;4994890;28;20096;-65
2021/03/23 04:21:11;;;;;;;38.00;21.48;;;;;;;;;;4993455;28;20096;-65
2021/03/23 04:23:38;;;;;;;41.70;21.20;;;;;;;;;;4994754;28;20034;-65
2021/03/23 04:26:04;;;;;;;37.20;19.83;;;;;;;;;;4994413;28;20061;-65
2021/03/23 04:28:29;;;;;;;38.70;21.48;;;;;;;;;;4994801;28;20019;-65
2021/03/23 04:30:55;;;;;;;43.47;22.08;;;;;;;;;;4994489;28;20084;-65
2021/03/23 04:33:22;;;;;;;37.33;19.92;;;;;;;;;;4994545;28;20036;-65
2021/03/23 04:35:58;;;;;;;37.50;20.95;;;;;;;;;;4994054;28;20018;-64
2021/03/23 04:38:34;;;;;;;41.72;21.27;;;;;;;;;;4994042;28;20479;-65
2021/03/23 04:41:02;;;;;;;39.55;20.27;;;;;;;;;;4993901;28;20487;-65
2021/03/23 04:43:35;;;;;;;31.23;19.77;;;;;;;;;;4994144;28;20038;-65
2021/03/23 04:46:01;;;;;;;36.47;20.67;;;;;;;;;;4994180;28;20085;-65
2021/03/23 04:48:26;;;;;;;37.97;21.08;;;;;;;;;;4994235;28;20406;-65
2021/03/23 04:50:52;;;;;;;35.28;20.25;;;;;;;;;;4994106;28;20034;-65
2021/03/23 04:53:28;;;;;;;43.35;20.30;;;;;;;;;;4994110;28;20411;-64
2021/03/23 04:55:54;;;;;;;37.35;21.45;;;;;;;;;;4993942;28;20085;-65
2021/03/23 04:58:20;;;;;;;37.90;20.73;;;;;;;;;;4994073;28;20073;-65
2021/03/23 05:00:45;;;;;;;40.15;21.10;;;;;;;;;;4993102;28;20149;-65
2021/03/23 05:03:12;;;;;;;39.85;20.88;;;;;;;;;;4993965;28;20030;-64
2021/03/23 05:05:38;;;;;;;39.95;19.65;;;;;;;;;;4993851;28;20089;-65
2021/03/23 05:08:03;;;;;;;31.83;20.10;;;;;;;;;;4993875;28;20022;-65
2021/03/23 05:10:28;;;;;;;37.63;19.95;;;;;;;;;;4993862;28;20101;-65
2021/03/23 05:12:53;;;;;;;46.55;22.08;;;;;;;;;;4993636;28;20113;-65
2021/03/23 05:15:19;;;;;;;33.97;18.73;;;;;;;;;;4993817;28;20505;-65
2021/03/23 05:17:44;;;;;;;37.30;20.98;;;;;;;;;;4993429;28;20121;-65
2021/03/23 05:20:09;;;;;;;46.20;20.55;;;;;;;;;;4993369;28;20050;-65
2021/03/23 05:22:35;;;;;;;36.53;19.25;;;;;;;;;;4993705;28;20022;-65
2021/03/23 05:25:00;;;;;;;37.22;18.55;;;;;;;;;;4993638;28;20034;-65
2021/03/23 05:27:25;;;;;;;35.17;18.05;;;;;;;;;;4993680;28;20034;-66
2021/03/23 05:29:51;;;;;;;32.80;17.85;;;;;;;;;;4993325;28;20026;-65
2021/03/23 05:32:16;;;;;;;38.58;18.45;;;;;;;;;;4993662;28;20041;-65
2021/03/23 05:34:41;;;;;;;29.75;17.10;;;;;;;;;;4993499;28;20069;-65
2021/03/23 05:37:06;;;;;;;33.90;17.48;;;;;;;;;;4993330;28;20033;-65
2021/03/23 05:39:32;;;;;;;31.92;18.52;;;;;;;;;;4993492;28;20047;-65
2021/03/23 05:42:03;;;;;;;38.25;18.70;;;;;;;;;;4993552;28;20070;-64
2021/03/23 05:44:41;;;;;;;35.08;17.88;;;;;;;;;;4993373;28;20047;-64
2021/03/23 05:47:10;;;;;;;29.65;17.23;;;;;;;;;;4995633;28;20085;-65
2021/03/23 05:49:41;;;;;;;29.60;18.15;;;;;;;;;;4997639;28;20038;-65
2021/03/23 05:52:15;;;;;;;34.08;17.92;;;;;;;;;;4997445;28;20028;-66
2021/03/23 05:54:41;;;;;;;30.08;17.52;;;;;;;;;;4997318;28;20065;-65
2021/03/23 05:57:12;;;;;;;29.75;17.20;;;;;;;;;;4997360;28;20019;-65
2021/03/23 05:59:38;;;;;;;34.15;17.27;;;;;;;;;;4996774;28;20439;-65
2021/03/23 06:02:21;;;;;;;25.95;15.93;;;;;;;;;;4997288;28;20034;-65
2021/03/23 06:04:52;;;;;;;25.48;15.10;;;;;;;;;;4997100;28;20041;-65
2021/03/23 06:07:18;;;;;;;30.67;16.00;;;;;;;;;;4997207;28;20038;-65
2021/03/23 06:09:43;;;;;;;27.38;15.02;;;;;;;;;;4997111;28;20029;-65
2021/03/23 06:12:12;;;;;;;23.70;13.18;;;;;;;;;;4997075;28;20026;-65
2021/03/23 06:14:40;;;;;;;23.85;13.48;;;;;;;;;;4996962;28;20039;-65
2021/03/23 06:17:11;;;;;;;22.85;13.80;;;;;;;;;;4996731;28;20410;-64
2021/03/23 06:19:44;;;;;;;19.67;13.63;;;;;;;;;;4996796;28;20046;-65
2021/03/23 06:22:28;;;;;;;25.35;12.43;;;;;;;;;;4996926;28;20089;-65
2021/03/23 06:25:03;;;;;;;17.65;9.63;;;;;;;;;;4995469;28;20042;-65
2021/03/23 06:27:51;;;;;;;20.52;7.20;;;;;;;;;;4996825;28;20387;-65
2021/03/23 06:30:20;;;;;;;13.27;6.45;;;;;;;;;;4996243;28;20042;-65
2021/03/23 06:32:47;;;;;;;23.13;10.07;;;;;;;;;;4996437;28;20558;-65
2021/03/23 06:35:27;;;;;;;15.10;9.30;;;;;;;;;;4996615;28;20010;-65
2021/03/23 06:37:52;;;;;;;20.10;10.23;;;;;;;;;;4996634;28;20038;-65
2021/03/23 06:40:20;;;;;;;17.23;9.40;;;;;;;;;;4996440;28;20046;-65
2021/03/23 06:42:47;;;;;;;15.00;7.15;;;;;;;;;;4996267;28;20487;-65
2021/03/23 06:45:18;;;;;;;12.88;7.25;;;;;;;;;;4996072;28;20081;-65
2021/03/23 06:47:43;;;;;;;14.52;5.60;;;;;;;;;;4996466;28;20064;-65
2021/03/23 06:50:14;;;;;;;14.48;6.10;;;;;;;;;;4996348;28;20459;-64
2021/03/23 06:52:40;;;;;;;10.30;6.15;;;;;;;;;;4996069;28;20066;-65
2021/03/23 06:55:05;;;;;;;9.13;5.28;;;;;;;;;;4996513;28;20076;-65
2021/03/23 06:57:34;;;;;;;9.80;4.90;;;;;;;;;;4996021;28;20050;-65
2021/03/23 07:00:00;;;;;;;12.52;5.20;;;;;;;;;;4996119;28;20096;-65
2021/03/23 07:02:46;;;;;;;11.85;4.80;;;;;;;;;;4996262;28;20042;-65
2021/03/23 07:05:17;;;;;;;11.68;5.25;;;;;;;;;;4995813;28;20506;-65
2021/03/23 07:07:50;;;;;;;12.65;7.18;;;;;;;;;;4996103;28;20030;-65
2021/03/23 07:10:17;;;;;;;11.98;6.93;;;;;;;;;;4995994;28;20034;-65
2021/03/23 07:12:46;;;;;;;14.48;7.45;;;;;;;;;;4995627;28;20034;-65
2021/03/23 07:15:12;;;;;;;14.07;7.85;;;;;;;;;;4995914;28;20018;-65
2021/03/23 07:17:41;;;;;;;16.45;11.10;;;;;;;;;;4995945;28;20036;-65
2021/03/23 07:20:09;;;;;;;14.25;8.75;;;;;;;;;;4995721;28;20073;-65
2021/03/23 07:22:34;;;;;;;15.60;8.63;;;;;;;;;;4995773;28;20022;-65
2021/03/23 07:25:00;;;;;;;13.27;8.70;;;;;;;;;;4994376;28;20080;-65
2021/03/23 07:27:26;;;;;;;14.38;9.00;;;;;;;;;;4995754;28;20038;-65
2021/03/23 07:30:11;;;;;;;13.85;8.10;;;;;;;;;;4995444;28;20022;-65
2021/03/23 07:32:46;;;;;;;13.18;7.88;;;;;;;;;;4995676;28;20381;-65
2021/03/23 07:35:14;;;;;;;18.70;8.23;;;;;;;;;;4995317;28;20057;-65
2021/03/23 07:37:58;;;;;;;11.60;8.27;;;;;;;;;;4995528;28;20464;-65
2021/03/23 07:40:44;;;;;;;12.20;7.82;;;;;;;;;;4995319;28;20046;-65
2021/03/23 07:43:17;;;;;;;14.88;8.38;;;;;;;;;;4994975;28;20046;-65
2021/03/23 07:45:42;;;;;;;15.10;7.03;;;;;;;;;;4995387;28;20054;-65
2021/03/23 07:48:11;;;;;;;13.27;7.45;;;;;;;;;;4994981;28;20361;-65
2021/03/23 07:50:41;;;;;;;11.57;6.65;;;;;;;;;;4995340;28;20125;-67
2021/03/23 07:53:12;;;;;;;11.15;7.50;;;;;;;;;;4987010;28;20633;-65
2021/03/23 07:55:38;;;;;;;11.52;6.57;;;;;;;;;;4994004;28;20023;-65
2021/03/23 07:58:26;;;;;;;12.30;6.25;;;;;;;;;;4994084;28;20041;-65
2021/03/23 08:01:00;;;;;;;11.40;7.10;;;;;;;;;;4988797;28;20030;-65
2021/03/23 08:03:25;;;;;;;12.18;6.47;;;;;;;;;;4975631;28;20117;-65
2021/03/23 08:05:51;;;;;;;12.05;6.18;;;;;;;;;;4975653;28;20488;-65
2021/03/23 08:08:16;;;;;;;10.55;6.35;;;;;;;;;;4975514;28;20097;-65
2021/03/23 08:10:53;;;;;;;10.90;6.78;;;;;;;;;;4974703;28;20435;-65
2021/03/23 08:13:39;;;;;;;14.43;5.97;;;;;;;;;;4993005;28;20101;-65
2021/03/23 08:16:12;;;;;;;9.95;5.93;;;;;;;;;;4990451;28;20045;-65
2021/03/23 08:19:02;;;;;;;9.63;5.78;;;;;;;;;;4983550;28;20035;-65
2021/03/23 08:21:45;;;;;;;11.63;5.75;;;;;;;;;;4975480;28;20035;-65
2021/03/23 08:24:16;;;;;;;9.20;5.30;;;;;;;;;;4975243;28;20391;-65
2021/03/23 08:26:51;;;;;;;9.32;5.50;;;;;;;;;;4975220;28;20031;-65
2021/03/23 08:29:36;;;;;;;9.23;5.85;;;;;;;;;;4975051;28;20047;-65
2021/03/23 08:32:01;;;;;;;10.73;5.57;;;;;;;;;;4976810;28;20046;-65
2021/03/23 08:34:41;;;;;;;8.63;5.47;;;;;;;;;;4975250;28;20035;-65
2021/03/23 08:37:13;;;;;;;14.00;5.65;;;;;;;;;;4974392;28;20392;-65
2021/03/23 08:39:48;;;;;;;9.77;4.45;;;;;;;;;;4983519;28;20046;-65
2021/03/23 08:42:15;;;;;;;9.90;4.88;;;;;;;;;;4980460;28;20038;-65
2021/03/23 08:44:44;;;;;;;7.78;4.80;;;;;;;;;;4987846;28;20545;-66
2021/03/23 08:47:31;;;;;;;9.30;4.75;;;;;;;;;;4989102;28;20418;-65
2021/03/23 08:50:00;;;;;;;7.50;4.93;;;;;;;;;;4987401;28;20053;-65
2021/03/23 08:52:25;;;;;;;11.55;6.07;;;;;;;;;;4987618;28;20049;-65
2021/03/23 08:54:51;;;;;;;10.35;5.18;;;;;;;;;;4981546;28;20022;-66
2021/03/23 08:57:17;;;;;;;12.05;5.00;;;;;;;;;;4989621;28;20026;-65
2021/03/23 08:59:44;;;;;;;11.63;5.18;;;;;;;;;;4991333;28;20046;-65
2021/03/23 09:02:09;;;;;;;10.90;4.93;;;;;;;;;;4987208;28;20029;-65
2021/03/23 09:04:39;;;;;;;14.93;5.75;;;;;;;;;;4992157;28;21101;-65
2021/03/23 09:07:07;;;;;;;7.18;4.55;;;;;;;;;;4985420;28;20034;-65
2021/03/23 09:09:42;;;;;;;8.88;5.63;;;;;;;;;;4975513;28;20442;-66
2021/03/23 09:12:13;;;;;;;10.18;5.35;;;;;;;;;;4982672;28;20073;-66
2021/03/23 09:15:03;;;;;;;10.27;5.18;;;;;;;;;;4989496;28;20039;-66
2021/03/23 09:17:37;;;;;;;9.52;4.85;;;;;;;;;;4988410;28;20037;-65
2021/03/23 09:20:22;;;;;;;10.48;5.55;;;;;;;;;;4989895;28;20106;-65
2021/03/23 09:22:48;;;;;;;8.73;5.18;;;;;;;;;;4989130;28;20026;-65
2021/03/23 09:25:18;;;;;;;10.05;6.00;;;;;;;;;;4990150;28;20040;-65
2021/03/23 09:27:49;;;;;;;13.80;5.65;;;;;;;;;;4989026;28;20029;-66
2021/03/23 09:30:35;;;;;;;12.00;6.20;;;;;;;;;;4989975;28;20092;-66
2021/03/23 09:33:15;;;;;;;8.27;5.75;;;;;;;;;;4988752;28;20431;-65
2021/03/23 09:35:59;;;;;;;12.75;6.40;;;;;;;;;;4989862;28;20049;-65
2021/03/23 09:38:37;;;;;;;14.18;6.70;;;;;;;;;;4989140;28;20121;-65
2021/03/23 09:41:06;;;;;;;10.50;6.13;;;;;;;;;;4989761;28;20026;-65
2021/03/23 09:43:37;;;;;;;12.25;6.32;;;;;;;;;;4989361;28;20042;-65
2021/03/23 09:46:04;;;;;;;13.25;6.93;;;;;;;;;;4988894;28;20029;-65
2021/03/23 09:48:29;;;;;;;9.65;6.32;;;;;;;;;;4989736;28;20102;-66
2021/03/23 09:50:55;;;;;;;11.95;7.20;;;;;;;;;;4989619;28;20019;-66
2021/03/23 09:53:35;;;;;;;14.38;8.00;;;;;;;;;;4989835;28;20045;-65
2021/03/23 09:56:07;;;;;;;13.95;7.32;;;;;;;;;;4973078;28;20034;-65
2021/03/23 09:58:32;;;;;;;12.27;6.88;;;;;;;;;;4971275;28;20043;-65
2021/03/23 10:01:12;;;;;;;14.38;7.20;;;;;;;;;;4971177;28;20061;-66
2021/03/23 10:03:38;;;;;;;9.77;6.55;;;;;;;;;;4976915;28;20190;-66
2021/03/23 10:06:05;;;;;;;10.73;7.32;;;;;;;;;;4975534;28;20030;-66
2021/03/23 10:08:35;;;;;;;16.05;7.43;;;;;;;;;;4980440;28;20038;-66
2021/03/23 10:11:08;;;;;;;12.20;7.05;;;;;;;;;;4985281;28;20052;-66
2021/03/23 10:13:34;;;;;;;11.55;6.90;;;;;;;;;;4965672;28;20039;-66
2021/03/23 10:16:02;;;;;;;14.10;8.02;;;;;;;;;;4967000;28;20514;-66
2021/03/23 10:18:29;;;;;;;14.95;8.50;;;;;;;;;;4979508;28;20030;-66
2021/03/23 10:21:02;;;;;;;14.98;7.07;;;;;;;;;;4985484;28;20050;-66
2021/03/23 10:23:29;;;;;;;13.00;7.22;;;;;;;;;;4986372;28;20487;-66
2021/03/23 10:25:55;;;;;;;16.60;7.32;;;;;;;;;;4985767;28;20046;-66
2021/03/23 10:28:28;;;;;;;12.82;7.25;;;;;;;;;;4986039;28;20030;-66
2021/03/23 10:30:58;;;;;;;13.52;7.78;;;;;;;;;;4985086;28;20038;-66
2021/03/23 10:33:29;;;;;;;11.68;7.25;;;;;;;;;;4988281;28;20049;-66
2021/03/23 10:36:05;;;;;;;14.05;7.97;;;;;;;;;;4988787;28;20023;-66
2021/03/23 10:38:32;;;;;;;13.05;7.60;;;;;;;;;;4989292;28;20068;-66
2021/03/23 10:41:20;;;;;;;11.05;7.00;;;;;;;;;;4992058;28;20029;-65
2021/03/23 10:43:47;;;;;;;9.93;7.40;;;;;;;;;;4993285;28;20046;-66
2021/03/23 10:46:27;;;;;;;13.32;7.50;;;;;;;;;;4993591;28;20053;-66
2021/03/23 10:48:53;;;;;;;13.95;7.70;;;;;;;;;;4993889;28;20033;-66
2021/03/23 10:51:20;;;;;;;13.27;7.35;;;;;;;;;;4986670;28;20052;-66
2021/03/23 10:54:07;;;;;;;11.20;7.40;;;;;;;;;;4984956;28;20065;-66
2021/03/23 10:56:40;;;;;;;12.45;7.43;;;;;;;;;;4988131;28;20082;-66
2021/03/23 10:59:05;;;;;;;12.75;7.72;;;;;;;;;;4975756;28;20039;-66
2021/03/23 11:01:30;;;;;;;14.15;7.75;;;;;;;;;;4993451;28;20121;-66
2021/03/23 11:04:09;;;;;;;13.23;8.10;;;;;;;;;;4992385;28;20494;-66
2021/03/23 11:06:35;;;;;;;11.95;7.38;;;;;;;;;;4992887;28;20100;-66
2021/03/23 11:09:02;;;;;;;12.40;8.00;;;;;;;;;;4990652;28;20034;-65
2021/03/23 11:11:30;;;;;;;12.07;7.70;;;;;;;;;;4975572;28;20096;-66
2021/03/23 11:13:55;;;;;;;16.63;7.63;;;;;;;;;;4989066;28;20057;-66
2021/03/23 11:16:21;;;;;;;15.10;7.95;;;;;;;;;;4988539;28;20062;-66
2021/03/23 11:18:48;;;;;;;12.70;8.30;;;;;;;;;;4999404;28;20044;-66
2021/03/23 11:21:15;;;;;;;14.63;8.55;;;;;;;;;;4994152;28;20551;-66
2021/03/23 11:23:43;;;;;;;16.65;9.02;;;;;;;;;;5004665;28;20119;-66
2021/03/23 11:26:11;;;;;;;14.77;8.13;;;;;;;;;;4995273;28;20095;-66
2021/03/23 11:28:36;;;;;;;16.50;8.70;;;;;;;;;;4998212;28;20468;-66
2021/03/23 11:31:03;;;;;;;14.02;8.18;;;;;;;;;;4989071;28;20038;-66
2021/03/23 11:33:31;;;;;;;11.48;8.05;;;;;;;;;;5004916;28;20034;-66
2021/03/23 11:35:56;;;;;;;15.40;8.65;;;;;;;;;;5000539;28;20423;-66
2021/03/23 11:38:22;;;;;;;15.00;9.15;;;;;;;;;;4996341;28;20044;-66
2021/03/23 11:40:48;;;;;;;14.50;9.13;;;;;;;;;;4996587;28;20141;-67
2021/03/23 11:43:21;;;;;;;13.02;8.35;;;;;;;;;;4989711;28;20057;-66
2021/03/23 11:45:47;;;;;;;14.18;8.52;;;;;;;;;;4984677;28;20057;-66
2021/03/23 11:48:13;;;;;;;16.25;8.65;;;;;;;;;;5000626;28;20040;-66
2021/03/23 11:50:40;;;;;;;12.20;7.70;;;;;;;;;;4997310;28;20065;-66
2021/03/23 11:53:07;;;;;;;13.57;8.55;;;;;;;;;;4991682;28;20038;-66
2021/03/23 11:55:40;;;;;;;13.25;8.95;;;;;;;;;;4981139;28;20121;-66
2021/03/23 11:58:07;;;;;;;13.35;8.25;;;;;;;;;;4986396;28;20049;-66
2021/03/23 12:00:33;;;;;;;12.55;7.88;;;;;;;;;;4984536;28;20042;-67
2021/03/23 12:02:59;;;;;;;14.20;9.07;;;;;;;;;;4988078;28;20089;-66
2021/03/23 12:05:25;;;;;;;12.55;8.50;;;;;;;;;;4986663;28;20022;-66
2021/03/23 12:08:10;;;;;;;15.95;8.07;;;;;;;;;;4973997;28;20053;-66
2021/03/23 12:10:41;;;;;;;15.25;8.77;;;;;;;;;;4997263;28;20033;-66
2021/03/23 12:13:06;;;;;;;17.63;9.20;;;;;;;;;;5001347;28;20034;-66
2021/03/23 12:15:34;;;;;;;17.08;9.35;;;;;;;;;;4990933;28;20026;-66
2021/03/23 12:18:03;;;;;;;14.77;9.60;;;;;;;;;;5002933;28;20145;-66
2021/03/23 12:20:33;;;;;;;14.38;7.88;;;;;;;;;;4994295;28;20813;-66
2021/03/23 12:22:58;;;;;;;16.75;9.15;;;;;;;;;;4992361;28;20161;-66
2021/03/23 12:25:24;;;;;;;16.00;9.88;;;;;;;;;;4988740;28;20485;-66
2021/03/23 12:27:49;;;;;;;20.38;12.05;;;;;;;;;;5002876;28;20448;-66
2021/03/23 12:30:16;;;;;;;18.42;10.23;;;;;;;;;;4992974;28;20578;-66
2021/03/23 12:32:41;;;;;;;14.73;9.85;;;;;;;;;;4997297;28;20030;-66
2021/03/23 12:35:12;;;;;;;18.40;10.02;;;;;;;;;;4979213;28;20089;-66
2021/03/23 12:37:39;;;;;;;16.63;11.05;;;;;;;;;;4989292;28;20026;-66
2021/03/23 12:40:12;;;;;;;16.05;10.73;;;;;;;;;;5000797;28;20046;-65
2021/03/23 12:42:37;;;;;;;16.10;10.38;;;;;;;;;;4996786;28;20133;-66
2021/03/23 12:45:04;;;;;;;15.38;9.35;;;;;;;;;;4993218;28;20126;-66
2021/03/23 12:47:29;;;;;;;18.55;11.10;;;;;;;;;;5002843;28;20028;-66
2021/03/23 12:49:55;;;;;;;28.38;17.92;;;;;;;;;;4990799;28;20038;-65
2021/03/23 12:52:22;;;;;;;26.02;16.48;;;;;;;;;;5000005;28;20133;-66
2021/03/23 12:54:54;;;;;;;19.83;12.35;;;;;;;;;;4998301;28;20026;-65
2021/03/23 12:57:23;;;;;;;17.95;12.23;;;;;;;;;;4991244;28;20034;-65
2021/03/23 12:59:49;;;;;;;19.38;11.82;;;;;;;;;;5002558;28;20057;-66
2021/03/23 13:02:21;;;;;;;18.60;10.90;;;;;;;;;;4986707;28;20038;-66
2021/03/23 13:04:46;;;;;;;30.40;19.75;;;;;;;;;;4985347;28;20334;-66
2021/03/23 13:07:17;;;;;;;18.77;10.70;;;;;;;;;;4977898;28;20092;-66
2021/03/23 13:09:42;;;;;;;17.27;11.98;;;;;;;;;;4986376;28;20038;-65
2021/03/23 13:12:08;;;;;;;91.65;52.47;;;;;;;;;;4988779;28;20030;-66
2021/03/23 13:14:33;;;;;;;21.52;12.38;;;;;;;;;;4983949;28;20027;-66
2021/03/23 13:16:59;;;;;;;17.42;11.25;;;;;;;;;;4985829;28;20038;-66
2021/03/23 13:19:24;;;;;;;50.08;26.58;;;;;;;;;;4984808;28;20057;-66
2021/03/23 13:21:57;;;;;;;23.30;14.38;;;;;;;;;;4987526;28;20026;-66
2021/03/23 13:24:39;;;;;;;19.83;13.13;;;;;;;;;;4985158;28;20120;-65
2021/03/23 13:27:25;;;;;;;17.98;11.43;;;;;;;;;;4986723;28;20034;-66
2021/03/23 13:29:50;;;;;;;15.95;11.15;;;;;;;;;;4988438;28;20072;-66
2021/03/23 13:32:16;;;;;;;19.50;10.90;;;;;;;;;;4998358;28;20054;-66
2021/03/23 13:34:42;;;;;;;14.55;9.60;;;;;;;;;;4984520;28;20035;-66
2021/03/23 13:37:09;;;;;;;18.75;12.05;;;;;;;;;;4983890;28;20072;-66
2021/03/23 13:39:36;;;;;;;24.13;11.70;;;;;;;;;;4986719;28;20042;-66
2021/03/23 13:42:13;;;;;;;15.90;10.07;;;;;;;;;;4984174;28;20498;-65
2021/03/23 13:44:50;;;;;;;17.83;10.25;;;;;;;;;;4981865;28;20105;-67
2021/03/23 13:47:18;;;;;;;18.33;10.63;;;;;;;;;;4982814;28;20041;-66
2021/03/23 13:49:43;;;;;;;17.90;10.23;;;;;;;;;;4985582;28;20038;-65
2021/03/23 13:52:27;;;;;;;19.27;12.10;;;;;;;;;;4987886;28;20030;-66
2021/03/23 13:54:52;;;;;;;17.88;10.50;;;;;;;;;;4984549;28;20050;-66
2021/03/23 13:57:18;;;;;;;17.00;9.63;;;;;;;;;;4984174;28;20494;-66
2021/03/23 13:59:44;;;;;;;20.77;12.63;;;;;;;;;;4986928;28;20107;-66
2021/03/23 14:02:13;;;;;;;18.75;11.85;;;;;;;;;;4999563;28;20030;-65
2021/03/23 14:04:38;;;;;;;20.70;10.10;;;;;;;;;;4983432;28;20153;-66
2021/03/23 14:07:04;;;;;;;22.95;11.52;;;;;;;;;;4983442;28;20113;-65
2021/03/23 14:09:31;;;;;;;13.90;8.00;;;;;;;;;;4988022;28;20034;-66
2021/03/23 14:11:58;;;;;;;16.05;9.02;;;;;;;;;;4994817;28;20033;-66
2021/03/23 14:14:23;;;;;;;19.52;10.10;;;;;;;;;;5001922;28;20037;-66
2021/03/23 14:16:49;;;;;;;15.95;10.75;;;;;;;;;;4996016;28;20054;-66
2021/03/23 14:19:14;;;;;;;16.13;8.95;;;;;;;;;;4989593;28;20038;-66
2021/03/23 14:21:39;;;;;;;14.75;9.73;;;;;;;;;;4986669;28;20027;-66
2021/03/23 14:24:05;;;;;;;24.00;11.75;;;;;;;;;;4987473;28;20439;-66
2021/03/23 14:26:30;;;;;;;21.33;11.98;;;;;;;;;;4992135;28;20038;-66
2021/03/23 14:28:56;;;;;;;14.63;9.30;;;;;;;;;;4986986;28;21098;-65
2021/03/23 14:31:23;;;;;;;20.20;9.52;;;;;;;;;;4985324;28;20088;-66